Time;durP1;ratioP1;P1;durP2;ratioP2;P2;SDS_P1;SDS_P2;PMS_P1;PMS_P2;Temp;Humidity;BMP_temperature;BMP_pressure;BME280_temperature;BME280_humidity;BME280_pressure;Samples;Min_cycle;Max_cycle;Signal;HPM_P1;HPM_P2
2022/01/16 00:50:57;;;;;;;;;;;;;;;;;;;;;
2022/01/16 06:11:53;;;;;;;;;;;;;;;;;;;;;
2022/01/16 06:15:06;;;;;;;;;;;;;;;;;;;;;
2022/01/16 06:18:58;;;;;;;;;;;;;;;;;;;;;
2022/01/16 06:59:08;;;;;;;;;;;;;;;;;;;;;
2022/01/16 07:24:15;;;;;;;;;;;;;;;;;;;;;
2022/01/16 07:35:54;;;;;;;;;;;;;;;;;;;;;
2022/01/16 09:15:13;;;;;;;;;;;;;;;;;;;;;
2022/01/16 09:18:51;;;;;;;;;;;;;;;;;;;;;
2022/01/16 09:22:43;;;;;;;;;;;;;;;;;;;;;
2022/01/16 09:37:09;;;;;;;;;;;;;;;;;;;;;
2022/01/16 11:42:49;;;;;;;;;;;;;;;;;;;;;
2022/01/16 11:50:30;;;;;;;;;;;;;;;;;;;;;
2022/01/16 11:58:44;;;;;;;;;;;;;;;;;;;;;
2022/01/16 12:02:01;;;;;;;28.77;18.75;;;6.80;94.60;;;;;;6031177;23;20027;-90
2022/01/16 12:19:20;;;;;;;;;;;6.90;94.60;;;;;;6164404;23;20024;-89
2022/01/16 12:25:27;;;;;;;25.33;17.13;;;7.00;94.60;;;;;;6036604;23;20027;-90
2022/01/16 12:28:37;;;;;;;;;;;;;;;;;;;;;
2022/01/16 12:35:54;;;;;;;;;;;;;;;;;;;;;
2022/01/16 12:39:37;;;;;;;26.77;17.08;;;7.10;94.50;;;;;;6227535;23;20040;-89
2022/01/16 12:42:30;;;;;;;26.35;16.52;;;7.10;94.40;;;;;;6201011;23;20016;-88
2022/01/16 12:52:30;;;;;;;21.60;16.42;;;7.20;94.40;;;;;;6101756;23;20134;-89
2022/01/16 12:55:59;;;;;;;;;;;;;;;;;;;;;
2022/01/16 12:58:34;;;;;;;23.23;13.85;;;7.20;94.40;;;;;;6200789;23;20021;-89
2022/01/16 13:01:58;;;;;;;;;;;;;;;;;;;;;
2022/01/16 13:05:19;;;;;;;;;;;;;;;;;;;;;
2022/01/16 13:08:48;;;;;;;21.10;12.05;;;7.30;94.30;;;;;;6059006;23;20019;-88
2022/01/16 13:15:20;;;;;;;;;;;;;;;;;;;;;
2022/01/16 13:18:16;;;;;;;;;;;;;;;;;;;;;
2022/01/16 13:21:18;;;;;;;18.35;10.93;;;7.40;94.30;;;;;;6056850;23;20046;-88
2022/01/16 13:24:49;;;;;;;;;;;;;;;;;;;;;
2022/01/16 13:27:28;;;;;;;16.40;10.13;;;7.30;94.10;;;;;;6012251;23;20020;-90
2022/01/16 13:33:31;;;;;;;18.83;10.93;;;7.50;94.20;;;;;;6176338;23;20020;-88
2022/01/16 13:36:31;;;;;;;17.58;10.55;;;7.50;94.20;;;;;;6128470;23;20094;-89
2022/01/16 13:40:09;;;;;;;;;;;;;;;;;;;;;
2022/01/16 13:43:24;;;;;;;;;;;;;;;;;;;;;
2022/01/16 13:46:33;;;;;;;19.08;14.05;;;7.50;94.20;;;;;;6179720;23;20066;-87
2022/01/16 13:49:23;;;;;;;;;;;;;;;;;;;;;
2022/01/16 13:52:30;;;;;;;;;;;;;;;;;;;;;
2022/01/16 13:58:37;;;;;;;25.55;16.95;;;7.40;94.30;;;;;;6158092;23;20079;-89
2022/01/16 14:02:02;;;;;;;;;;;;;;;;;;;;;
2022/01/16 14:08:38;;;;;;;;;;;;;;;;;;;;;
2022/01/16 14:15:40;;;;;;;30.88;20.70;;;7.40;94.40;;;;;;6175269;23;20105;-89
2022/01/16 14:18:52;;;;;;;;;;;;;;;;;;;;;
2022/01/16 14:25:05;;;;;;;;;;;;;;;;;;;;;
2022/01/16 14:32:08;;;;;;;35.00;23.30;;;7.40;94.40;;;;;;6139585;23;20040;-88
2022/01/16 14:35:40;;;;;;;33.58;21.45;;;7.40;94.40;;;;;;6147133;23;20099;-89
2022/01/16 14:46:03;;;;;;;;;;;;;;;;;;;;;
2022/01/16 14:48:55;;;;;;;40.90;25.67;;;7.30;94.40;;;;;;6137028;23;20336;-89
2022/01/16 14:51:39;;;;;;;;;;;;;;;;;;;;;
2022/01/16 15:04:43;;;;;;;;;;;;;;;;;;;;;
2022/01/16 15:08:10;;;;;;;;;;;;;;;;;;;;;
2022/01/16 15:14:21;;;;;;;50.70;29.92;;;7.30;94.60;;;;;;6153359;23;20021;-88
2022/01/16 15:17:05;;;;;;;;;;;;;;;;;;;;;
2022/01/16 15:19:34;;;;;;;52.40;28.42;;;7.40;94.70;;;;;;6145312;23;20021;-87
2022/01/16 15:22:21;;;;;;;53.58;30.17;;;7.40;94.80;;;;;;6117914;23;20051;-83
2022/01/16 15:24:46;;;;;;;49.03;29.60;;;7.40;94.80;;;;;;6122432;23;20028;-84
2022/01/16 15:27:12;;;;;;;52.30;28.92;;;7.40;94.90;;;;;;6118601;23;20017;-84
2022/01/16 15:29:44;;;;;;;53.30;31.45;;;7.40;94.90;;;;;;6095044;23;20021;-88
2022/01/16 15:32:10;;;;;;;49.38;29.85;;;7.40;94.90;;;;;;6095942;23;20096;-77
2022/01/16 15:34:36;;;;;;;46.83;28.63;;;7.30;94.90;;;;;;6115823;23;20032;-77
2022/01/16 15:37:04;;;;;;;51.53;27.92;;;7.50;95.00;;;;;;6091962;23;20021;-82
2022/01/16 15:39:39;;;;;;;50.30;29.02;;;7.40;95.00;;;;;;6176944;23;20020;-82
2022/01/16 15:42:05;;;;;;;47.67;28.77;;;7.40;95.00;;;;;;6127449;23;20027;-81
2022/01/16 15:44:32;;;;;;;48.92;29.55;;;7.40;95.00;;;;;;6148482;23;20028;-82
2022/01/16 15:47:08;;;;;;;45.78;27.67;;;7.40;95.40;;;;;;6125012;23;20386;-82
2022/01/16 15:49:34;;;;;;;49.15;28.60;;;7.40;95.10;;;;;;6123373;23;20047;-80
2022/01/16 15:52:00;;;;;;;43.97;27.00;;;7.40;95.10;;;;;;6172633;23;20099;-79
2022/01/16 15:54:26;;;;;;;47.50;28.05;;;7.40;95.20;;;;;;6148219;23;20017;-81
2022/01/16 15:57:02;;;;;;;42.63;26.77;;;7.40;95.20;;;;;;6123754;23;20020;-82
2022/01/16 15:59:30;;;;;;;39.63;24.77;;;7.40;95.20;;;;;;6125814;23;20036;-81
2022/01/16 16:01:55;;;;;;;43.67;24.95;;;7.40;95.20;;;;;;6170069;23;20342;-80
2022/01/16 16:04:21;;;;;;;45.15;26.63;;;7.30;95.20;;;;;;6145927;23;20056;-80
2022/01/16 16:06:47;;;;;;;44.25;23.33;;;7.40;95.30;;;;;;6146869;23;20016;-81
2022/01/16 16:09:15;;;;;;;45.03;25.10;;;7.40;95.30;;;;;;6146877;23;20165;-82
2022/01/16 16:11:43;;;;;;;38.40;21.45;;;7.30;95.30;;;;;;6172189;23;20057;-79
2022/01/16 16:14:10;;;;;;;39.67;23.05;;;7.40;95.30;;;;;;6149098;23;20025;-83
2022/01/16 16:16:36;;;;;;;37.85;22.27;;;7.40;95.30;;;;;;6220980;23;20017;-78
2022/01/16 16:19:02;;;;;;;38.58;21.83;;;7.30;95.30;;;;;;6169794;23;20036;-80
2022/01/16 16:21:38;;;;;;;35.90;20.77;;;7.40;95.30;;;;;;6171457;23;20100;-84
2022/01/16 16:24:05;;;;;;;33.30;20.95;;;7.40;95.40;;;;;;6121498;23;20016;-80
2022/01/16 16:26:30;;;;;;;31.92;21.02;;;7.40;95.40;;;;;;6169019;23;20017;-81
2022/01/16 16:28:57;;;;;;;27.88;18.80;;;7.40;95.40;;;;;;6143613;23;20394;-82
2022/01/16 16:31:34;;;;;;;29.27;18.92;;;7.40;95.40;;;;;;6170910;23;20032;-85
2022/01/16 16:34:03;;;;;;;27.45;18.90;;;7.40;95.40;;;;;;6125899;23;20029;-85
2022/01/16 16:36:31;;;;;;;28.13;17.20;;;7.40;95.30;;;;;;6171797;23;20019;-83
2022/01/16 16:39:03;;;;;;;30.25;16.30;;;7.30;95.30;;;;;;6172369;23;20021;-82
2022/01/16 16:41:35;;;;;;;26.63;17.20;;;7.40;95.30;;;;;;6147650;23;20328;-84
2022/01/16 16:44:12;;;;;;;26.63;16.48;;;7.40;95.30;;;;;;6125579;23;20063;-90
2022/01/16 16:49:57;;;;;;;26.80;16.90;;;7.30;95.30;;;;;;6179446;23;20474;-89
2022/01/16 16:52:58;;;;;;;24.90;16.58;;;7.30;95.30;;;;;;6124951;23;20328;-87
2022/01/16 16:55:46;;;;;;;27.42;17.75;;;7.30;95.30;;;;;;6148854;23;20043;-85
2022/01/16 16:58:18;;;;;;;23.00;16.52;;;7.30;95.30;;;;;;6129293;23;20115;-85
2022/01/16 17:00:45;;;;;;;21.77;12.05;;;7.30;95.30;;;;;;6120900;23;20048;-81
2022/01/16 17:03:13;;;;;;;28.77;17.00;;;7.50;95.70;;;;;;6168044;23;20029;-85
2022/01/16 17:05:40;;;;;;;28.50;15.68;;;7.60;95.80;;;;;;6170447;23;20016;-79
2022/01/16 17:08:06;;;;;;;28.08;16.23;;;7.60;95.40;;;;;;6167574;23;20020;-76
2022/01/16 17:10:32;;;;;;;24.02;15.70;;;7.50;95.20;;;;;;6118572;23;20017;-81
2022/01/16 17:13:00;;;;;;;24.35;16.23;;;7.50;95.20;;;;;;6144125;23;20357;-77
2022/01/16 17:15:26;;;;;;;23.25;15.48;;;7.50;95.20;;;;;;6191664;23;20330;-79
2022/01/16 17:17:54;;;;;;;22.75;15.48;;;7.40;95.20;;;;;;6117657;23;20025;-84
2022/01/16 17:20:30;;;;;;;27.38;16.08;;;7.40;95.30;;;;;;6141112;23;20114;-78
2022/01/16 17:22:56;;;;;;;25.38;14.50;;;7.40;95.30;;;;;;6191227;23;20051;-79
2022/01/16 17:25:25;;;;;;;24.42;15.23;;;7.40;95.30;;;;;;6117848;23;20335;-77
2022/01/16 17:27:51;;;;;;;29.38;16.65;;;7.40;95.30;;;;;;6190524;23;20315;-78
2022/01/16 17:30:19;;;;;;;23.63;14.20;;;7.30;95.30;;;;;;6164660;23;20021;-77
2022/01/16 17:32:46;;;;;;;22.48;14.68;;;7.30;95.30;;;;;;6164847;23;20021;-80
2022/01/16 17:35:11;;;;;;;24.92;14.88;;;7.30;95.30;;;;;;6188861;23;20017;-78
2022/01/16 17:37:37;;;;;;;22.13;15.35;;;7.30;95.30;;;;;;6140763;23;20055;-78
2022/01/16 17:40:04;;;;;;;26.45;15.57;;;7.30;95.30;;;;;;6164038;23;20415;-78
2022/01/16 17:42:30;;;;;;;20.20;13.70;;;7.30;95.30;;;;;;6140775;23;20471;-78
2022/01/16 17:44:56;;;;;;;21.73;15.30;;;7.30;95.30;;;;;;6166076;23;20028;-78
2022/01/16 17:47:24;;;;;;;21.15;14.18;;;7.30;95.30;;;;;;6167220;23;20019;-78
2022/01/16 17:49:51;;;;;;;20.77;14.18;;;7.30;95.30;;;;;;6167933;23;20023;-79
2022/01/16 17:52:17;;;;;;;20.67;14.40;;;7.20;95.30;;;;;;6140007;23;20021;-77
2022/01/16 17:54:43;;;;;;;26.80;15.82;;;7.20;95.30;;;;;;6189518;23;20024;-77
2022/01/16 17:57:09;;;;;;;25.60;16.20;;;7.30;95.30;;;;;;6164225;23;20020;-76
2022/01/16 17:59:34;;;;;;;21.90;16.48;;;7.30;95.30;;;;;;6164122;23;20012;-78
2022/01/16 18:02:00;;;;;;;25.23;16.80;;;7.20;95.30;;;;;;6189534;23;20025;-77
2022/01/16 18:04:26;;;;;;;24.35;15.70;;;7.30;95.30;;;;;;6139353;23;20017;-77
2022/01/16 18:06:51;;;;;;;22.80;14.52;;;7.20;95.30;;;;;;6215658;23;20009;-76
2022/01/16 18:09:17;;;;;;;21.35;14.40;;;7.20;95.30;;;;;;6116577;23;20092;-78
2022/01/16 18:11:43;;;;;;;23.73;14.73;;;7.20;95.30;;;;;;6165760;23;20021;-76
2022/01/16 18:14:09;;;;;;;26.17;14.98;;;7.20;95.30;;;;;;6164682;23;20043;-76
2022/01/16 18:16:34;;;;;;;26.33;16.60;;;7.20;95.30;;;;;;6193296;23;20021;-79
2022/01/16 18:19:00;;;;;;;26.05;16.83;;;7.20;95.30;;;;;;6142953;23;20024;-79
2022/01/16 18:21:26;;;;;;;28.98;16.13;;;7.20;95.30;;;;;;6168406;23;20032;-81
2022/01/16 18:23:52;;;;;;;23.35;15.60;;;7.20;95.30;;;;;;6145754;23;20020;-80
2022/01/16 18:26:17;;;;;;;24.80;16.27;;;7.20;95.30;;;;;;6169490;23;20436;-80
2022/01/16 18:28:43;;;;;;;28.48;15.77;;;7.20;95.40;;;;;;6169594;23;20443;-79
2022/01/16 18:31:11;;;;;;;26.02;16.77;;;7.20;95.40;;;;;;6195084;23;20511;-80
2022/01/16 18:33:38;;;;;;;24.48;15.15;;;7.20;95.50;;;;;;6170514;23;20024;-80
2022/01/16 18:36:04;;;;;;;29.50;16.70;;;7.20;95.50;;;;;;6145371;23;20517;-83
2022/01/16 18:38:30;;;;;;;24.35;15.80;;;7.20;95.60;;;;;;6170608;23;20021;-80
2022/01/16 18:40:56;;;;;;;26.42;16.83;;;7.20;95.60;;;;;;6146345;23;20021;-80
2022/01/16 18:43:21;;;;;;;27.08;15.63;;;7.20;95.70;;;;;;6195005;23;20016;-80
2022/01/16 18:45:52;;;;;;;24.75;15.73;;;7.20;95.70;;;;;;6144776;23;20072;-80
2022/01/16 18:48:22;;;;;;;23.58;15.95;;;7.20;95.80;;;;;;6145389;23;20020;-81
2022/01/16 18:50:54;;;;;;;27.23;16.95;;;7.10;95.80;;;;;;6170457;23;20435;-76
2022/01/16 18:53:20;;;;;;;26.63;16.50;;;7.20;95.80;;;;;;6141647;23;20550;-79
2022/01/16 18:55:46;;;;;;;23.77;16.02;;;7.10;95.80;;;;;;6145823;23;20056;-79
2022/01/16 18:58:13;;;;;;;26.40;17.85;;;7.20;95.90;;;;;;6167929;23;20020;-80
2022/01/16 19:00:42;;;;;;;24.63;16.67;;;7.10;95.90;;;;;;6145902;23;20096;-81
2022/01/16 19:03:11;;;;;;;24.02;16.02;;;7.20;96.00;;;;;;6169884;23;20334;-82
2022/01/16 19:05:40;;;;;;;29.25;16.58;;;7.20;96.00;;;;;;6170657;23;20027;-82
2022/01/16 19:08:07;;;;;;;26.33;15.85;;;7.20;96.00;;;;;;6146324;23;20027;-80
2022/01/16 19:10:37;;;;;;;22.25;16.27;;;7.10;96.00;;;;;;6172524;23;20036;-79
2022/01/16 19:13:10;;;;;;;25.27;17.23;;;7.20;96.00;;;;;;6147994;23;20012;-82
2022/01/16 19:15:47;;;;;;;22.65;14.88;;;7.20;96.10;;;;;;6149078;23;20020;-80
2022/01/16 19:18:15;;;;;;;30.48;15.57;;;7.20;96.10;;;;;;6199094;23;20105;-82
2022/01/16 19:20:43;;;;;;;30.67;16.88;;;7.20;96.10;;;;;;6171130;23;20025;-81
2022/01/16 19:23:11;;;;;;;25.13;16.65;;;7.20;96.10;;;;;;6146563;23;20024;-83
2022/01/16 19:25:37;;;;;;;22.15;14.63;;;7.20;96.20;;;;;;6122186;23;20040;-79
2022/01/16 19:28:05;;;;;;;26.52;15.18;;;7.20;96.20;;;;;;6171252;23;20012;-80
2022/01/16 19:30:35;;;;;;;23.33;14.80;;;7.20;96.20;;;;;;6146868;23;20316;-80
2022/01/16 19:33:03;;;;;;;23.77;14.02;;;7.20;96.20;;;;;;6148602;23;20028;-79
2022/01/16 19:35:34;;;;;;;26.58;14.07;;;7.20;96.30;;;;;;6121839;23;20016;-80
2022/01/16 19:38:11;;;;;;;24.88;13.98;;;7.20;96.30;;;;;;6127277;23;20055;-80
2022/01/16 19:40:42;;;;;;;30.75;13.68;;;7.20;96.30;;;;;;6150376;23;20039;-80
2022/01/16 19:43:12;;;;;;;23.10;13.38;;;7.20;96.30;;;;;;6148731;23;20069;-81
2022/01/16 19:45:43;;;;;;;30.92;13.30;;;7.20;96.30;;;;;;6172519;23;20020;-80
2022/01/16 19:48:10;;;;;;;25.25;13.25;;;7.20;96.30;;;;;;6124068;23;20052;-80
2022/01/16 19:50:40;;;;;;;25.77;13.15;;;7.20;96.30;;;;;;6147413;23;20016;-83
2022/01/16 19:53:08;;;;;;;25.98;12.45;;;7.20;96.30;;;;;;6147841;23;20016;-81
2022/01/16 19:55:37;;;;;;;20.67;11.90;;;7.20;96.40;;;;;;6120820;23;20029;-82
2022/01/16 19:58:03;;;;;;;24.67;11.90;;;7.20;96.30;;;;;;6171177;23;20024;-84
2022/01/16 20:00:30;;;;;;;22.77;11.35;;;7.20;96.30;;;;;;6123009;23;20448;-82
2022/01/16 20:02:56;;;;;;;26.65;11.43;;;7.20;96.40;;;;;;6123741;23;20451;-81
2022/01/16 20:05:24;;;;;;;25.10;11.82;;;7.20;96.40;;;;;;6145021;23;20320;-82
2022/01/16 20:07:50;;;;;;;21.15;10.63;;;7.20;96.30;;;;;;6148281;23;20025;-81
2022/01/16 20:10:16;;;;;;;24.17;11.65;;;7.20;96.40;;;;;;6146370;23;20331;-83
2022/01/16 20:12:45;;;;;;;27.90;10.50;;;7.20;96.30;;;;;;6147232;23;20462;-82
2022/01/16 20:15:16;;;;;;;23.15;9.48;;;7.20;96.30;;;;;;6146476;23;20017;-80
2022/01/16 20:17:42;;;;;;;20.17;10.38;;;7.20;96.30;;;;;;6148707;23;20016;-81
2022/01/16 20:20:13;;;;;;;24.58;9.63;;;7.20;96.30;;;;;;6146660;23;20043;-79
2022/01/16 20:22:41;;;;;;;26.42;9.35;;;7.20;96.30;;;;;;6121466;23;20032;-80
2022/01/16 20:25:07;;;;;;;18.83;9.15;;;7.20;96.30;;;;;;6146586;23;20021;-83
2022/01/16 20:27:33;;;;;;;17.77;8.18;;;7.20;96.30;;;;;;6170827;23;20027;-81
2022/01/16 20:30:01;;;;;;;20.10;8.02;;;7.20;96.20;;;;;;6146897;23;20017;-81
2022/01/16 20:32:27;;;;;;;18.45;7.57;;;7.10;96.20;;;;;;6196268;23;20102;-84
2022/01/16 20:34:53;;;;;;;17.25;8.15;;;7.10;96.20;;;;;;6146768;23;20016;-82
2022/01/16 20:37:18;;;;;;;21.17;7.25;;;7.10;96.20;;;;;;6146750;23;20020;-83
2022/01/16 20:39:44;;;;;;;18.45;6.95;;;7.10;96.20;;;;;;6170937;23;20027;-82
2022/01/16 20:42:10;;;;;;;21.95;7.22;;;7.10;96.10;;;;;;6146232;23;20035;-83
2022/01/16 20:44:36;;;;;;;24.70;8.23;;;7.10;96.20;;;;;;6145330;23;20024;-82
2022/01/16 20:47:01;;;;;;;22.55;7.78;;;7.00;96.10;;;;;;6121375;23;20047;-81
2022/01/16 20:49:33;;;;;;;13.43;7.40;;;7.10;96.20;;;;;;6117204;23;20024;-78
2022/01/16 20:52:01;;;;;;;20.52;7.50;;;7.30;96.60;;;;;;6118164;23;20024;-82
2022/01/16 20:54:28;;;;;;;17.45;6.47;;;7.60;97.20;;;;;;6169230;23;20017;-82
2022/01/16 20:56:53;;;;;;;17.63;5.90;;;7.70;96.40;;;;;;6146335;23;20020;-81
2022/01/16 20:59:22;;;;;;;14.68;5.88;;;7.60;96.10;;;;;;6171121;23;20116;-81
2022/01/16 21:01:50;;;;;;;20.20;6.53;;;7.60;96.00;;;;;;6146662;23;20024;-81
2022/01/16 21:04:15;;;;;;;19.52;6.80;;;7.60;96.00;;;;;;6145783;23;20032;-82
2022/01/16 21:06:43;;;;;;;19.95;5.93;;;7.40;95.90;;;;;;6118183;23;20028;-80
2022/01/16 21:09:10;;;;;;;17.23;5.30;;;7.40;95.90;;;;;;6167306;23;20039;-83
2022/01/16 21:11:36;;;;;;;15.27;5.18;;;7.40;95.90;;;;;;6194542;23;20362;-84
2022/01/16 21:14:05;;;;;;;14.95;5.05;;;7.40;95.90;;;;;;6170326;23;20078;-84
2022/01/16 21:16:42;;;;;;;14.43;4.00;;;7.40;95.90;;;;;;6170018;23;20023;-82
2022/01/16 21:19:09;;;;;;;17.45;4.70;;;7.30;95.90;;;;;;6124809;23;20115;-84
2022/01/16 21:21:35;;;;;;;12.70;3.45;;;7.30;95.90;;;;;;6170734;23;20278;-81
2022/01/16 21:24:01;;;;;;;13.40;3.97;;;7.20;95.90;;;;;;6144283;23;20051;-82
2022/01/16 21:26:29;;;;;;;11.35;3.10;;;7.20;95.90;;;;;;6144429;23;20044;-83
2022/01/16 21:28:57;;;;;;;8.82;2.88;;;7.20;95.90;;;;;;6145977;23;20031;-82
2022/01/16 21:31:23;;;;;;;10.02;3.20;;;7.20;95.90;;;;;;6170457;23;20031;-81
2022/01/16 21:33:51;;;;;;;9.07;2.38;;;7.20;95.90;;;;;;6169846;23;20021;-82
2022/01/16 21:36:18;;;;;;;9.82;3.00;;;7.20;95.90;;;;;;6168794;23;20023;-83
2022/01/16 21:38:44;;;;;;;10.55;2.42;;;7.20;95.90;;;;;;6146703;23;20028;-82
2022/01/16 21:41:12;;;;;;;8.38;2.53;;;7.10;95.90;;;;;;6119626;23;20079;-84
2022/01/16 21:43:40;;;;;;;8.23;2.83;;;7.10;95.90;;;;;;6169764;23;20020;-82
2022/01/16 21:46:06;;;;;;;15.80;3.35;;;7.10;95.90;;;;;;6195031;23;20063;-81
2022/01/16 21:48:33;;;;;;;13.77;3.22;;;7.00;95.90;;;;;;6195501;23;20013;-84
2022/01/16 21:50:59;;;;;;;9.40;3.25;;;7.00;95.90;;;;;;6146269;23;20020;-82
2022/01/16 21:53:24;;;;;;;13.55;2.75;;;7.00;95.90;;;;;;6145705;23;20039;-82
2022/01/16 21:55:50;;;;;;;12.13;4.47;;;7.00;95.90;;;;;;6138083;23;20289;-83
2022/01/16 21:58:17;;;;;;;10.32;3.33;;;7.20;96.40;;;;;;6169393;23;20051;-82
2022/01/16 22:00:44;;;;;;;11.23;3.20;;;7.20;96.20;;;;;;6171097;23;20360;-86
2022/01/16 22:03:11;;;;;;;10.88;3.20;;;7.20;95.90;;;;;;6146605;23;20021;-82
2022/01/16 22:05:39;;;;;;;14.80;2.95;;;7.20;95.80;;;;;;6169439;23;20017;-87
2022/01/16 22:08:07;;;;;;;8.90;3.00;;;7.10;95.80;;;;;;6171167;23;20020;-85
2022/01/16 22:10:33;;;;;;;10.32;2.92;;;7.10;95.80;;;;;;6196051;23;20020;-83
2022/01/16 22:12:59;;;;;;;12.52;3.10;;;7.10;95.80;;;;;;6171874;23;20074;-82
2022/01/16 22:15:24;;;;;;;10.70;2.22;;;7.00;95.80;;;;;;6171468;23;20324;-82
2022/01/16 22:17:50;;;;;;;11.07;2.47;;;7.00;95.80;;;;;;6171628;23;20016;-81
2022/01/16 22:20:18;;;;;;;6.97;2.28;;;7.00;95.80;;;;;;6169219;23;20021;-81
2022/01/16 22:22:44;;;;;;;11.88;3.00;;;7.00;95.80;;;;;;6117629;23;20013;-81
2022/01/16 22:25:15;;;;;;;8.73;2.50;;;7.00;95.80;;;;;;6195163;23;20047;-81
2022/01/16 22:27:50;;;;;;;12.43;2.83;;;7.00;95.80;;;;;;6145004;23;20100;-81
2022/01/16 22:30:15;;;;;;;11.82;2.28;;;6.90;95.80;;;;;;6147939;23;20323;-81
2022/01/16 22:32:44;;;;;;;7.57;2.22;;;6.90;95.80;;;;;;6144799;23;20013;-80
2022/01/16 22:35:17;;;;;;;11.50;2.20;;;6.90;95.80;;;;;;6145668;23;20016;-82
2022/01/16 22:37:43;;;;;;;8.25;1.75;;;6.90;95.70;;;;;;6145155;23;20020;-81
2022/01/16 22:40:09;;;;;;;6.20;2.10;;;6.90;95.70;;;;;;6145067;23;20023;-81
2022/01/16 22:42:35;;;;;;;12.07;2.05;;;6.90;95.70;;;;;;6194322;23;20038;-84
2022/01/16 22:45:01;;;;;;;8.05;1.92;;;6.90;95.70;;;;;;6146235;23;20410;-80
2022/01/16 22:47:27;;;;;;;7.25;1.73;;;6.80;95.70;;;;;;6169388;23;20016;-80
2022/01/16 22:49:53;;;;;;;10.02;1.85;;;6.80;95.60;;;;;;6168366;23;20394;-82
2022/01/16 22:52:19;;;;;;;9.75;2.10;;;6.80;95.60;;;;;;6120301;23;20016;-81
2022/01/16 22:54:45;;;;;;;7.80;1.90;;;6.80;95.70;;;;;;6191882;23;20021;-77
2022/01/16 22:57:11;;;;;;;9.15;1.92;;;6.80;95.60;;;;;;6144534;23;20039;-84
2022/01/16 22:59:37;;;;;;;11.77;2.13;;;6.80;95.60;;;;;;6169337;23;20012;-84
2022/01/16 23:02:03;;;;;;;8.57;2.00;;;6.80;95.60;;;;;;6169191;23;20028;-87
2022/01/16 23:04:30;;;;;;;8.60;2.20;;;6.80;95.60;;;;;;6121160;23;20115;-86
2022/01/16 23:06:57;;;;;;;12.93;2.90;;;6.80;95.60;;;;;;6120538;23;20073;-81
2022/01/16 23:09:23;;;;;;;10.45;2.17;;;6.80;95.60;;;;;;6143677;23;20013;-82
2022/01/16 23:11:50;;;;;;;12.07;2.15;;;6.80;95.60;;;;;;6167324;23;20438;-78
2022/01/16 23:14:16;;;;;;;11.68;2.70;;;6.80;95.50;;;;;;6191222;23;20327;-81
2022/01/16 23:16:42;;;;;;;9.30;2.00;;;6.80;95.50;;;;;;6167904;23;20020;-80
2022/01/16 23:19:12;;;;;;;15.40;2.90;;;6.80;95.50;;;;;;6191599;23;20091;-78
2022/01/16 23:21:38;;;;;;;10.82;2.42;;;6.70;95.40;;;;;;6169611;23;20060;-81
2022/01/16 23:24:04;;;;;;;13.50;2.47;;;6.70;95.40;;;;;;6144485;23;20236;-82
2022/01/16 23:26:30;;;;;;;12.75;2.40;;;6.70;95.40;;;;;;6144765;23;20009;-81
2022/01/16 23:28:55;;;;;;;9.00;2.38;;;6.70;95.40;;;;;;6143252;23;20020;-79
2022/01/16 23:31:21;;;;;;;14.13;2.53;;;6.70;95.30;;;;;;6168711;23;20009;-83
2022/01/16 23:33:47;;;;;;;11.00;2.53;;;6.70;95.30;;;;;;6191953;23;20023;-85
2022/01/16 23:36:12;;;;;;;12.15;2.80;;;6.70;95.30;;;;;;6194384;23;20019;-85
2022/01/16 23:38:41;;;;;;;15.57;2.83;;;6.70;95.30;;;;;;6194457;23;20016;-84
2022/01/16 23:41:07;;;;;;;12.80;1.92;;;6.70;95.20;;;;;;6169619;23;20235;-84
2022/01/16 23:43:33;;;;;;;12.85;3.03;;;6.70;95.20;;;;;;6169468;23;20319;-85
2022/01/16 23:46:00;;;;;;;9.55;2.58;;;6.70;95.20;;;;;;6144528;23;20020;-85
2022/01/16 23:48:26;;;;;;;19.23;2.65;;;6.70;95.40;;;;;;6145345;23;20315;-84
2022/01/16 23:50:52;;;;;;;15.18;2.67;;;6.70;95.00;;;;;;6169833;23;20019;-84
2022/01/16 23:53:17;;;;;;;15.27;3.33;;;6.70;95.00;;;;;;6145341;23;20052;-84
2022/01/16 23:55:43;;;;;;;15.02;2.97;;;6.70;95.00;;;;;;6146975;23;20017;-84
2022/01/16 23:58:09;;;;;;;11.10;2.75;;;6.70;95.00;;;;;;6122647;23;20021;-84
